Time;durP1;ratioP1;P1;durP2;ratioP2;P2;SDS_P1;SDS_P2;PMS_P1;PMS_P2;Temp;Humidity;BMP_temperature;BMP_pressure;BME280_temperature;BME280_humidity;BME280_pressure;Samples;Min_cycle;Max_cycle;Signal;HPM_P1;HPM_P2
2022/07/23 00:00:28;;;;;;;3.00;1.45;;;15.30;81.10;;;;;;5038613;28;20176;-87
2022/07/23 00:02:53;;;;;;;2.13;1.20;;;15.30;81.00;;;;;;5056430;28;20179;-87
2022/07/23 00:05:19;;;;;;;4.65;1.48;;;15.30;80.80;;;;;;5056662;28;20211;-87
2022/07/23 00:07:44;;;;;;;5.93;1.35;;;15.30;80.70;;;;;;5038766;28;20179;-87
2022/07/23 00:10:10;;;;;;;3.95;1.25;;;15.30;80.50;;;;;;5038580;28;20259;-87
2022/07/23 00:12:37;;;;;;;6.00;1.40;;;15.50;80.30;;;;;;5038520;28;20222;-87
2022/07/23 00:15:05;;;;;;;4.32;1.38;;;15.50;79.80;;;;;;5056172;28;20621;-87
2022/07/23 00:17:30;;;;;;;8.50;2.47;;;15.50;79.90;;;;;;5038464;28;20180;-87
2022/07/23 00:19:56;;;;;;;4.00;1.40;;;15.40;79.90;;;;;;5039279;28;20187;-86
2022/07/23 00:22:21;;;;;;;2.80;1.35;;;15.50;79.90;;;;;;5038359;28;20666;-86
2022/07/23 00:24:47;;;;;;;2.63;1.05;;;15.40;80.20;;;;;;5038165;28;20203;-87
2022/07/23 00:27:12;;;;;;;5.75;1.48;;;15.40;80.30;;;;;;5038258;28;20183;-88
2022/07/23 00:29:38;;;;;;;4.33;1.50;;;15.40;79.80;;;;;;5055990;28;20617;-87
2022/07/23 00:32:04;;;;;;;8.27;1.60;;;15.50;79.50;;;;;;5038189;28;20676;-86
2022/07/23 00:34:29;;;;;;;5.95;2.70;;;15.50;79.60;;;;;;5037884;28;20254;-87
2022/07/23 00:36:56;;;;;;;5.72;1.67;;;15.50;80.00;;;;;;5042915;28;20221;-90
2022/07/23 00:39:22;;;;;;;3.67;1.50;;;15.40;80.10;;;;;;5038535;28;20180;-87
2022/07/23 00:41:49;;;;;;;3.47;1.40;;;15.50;80.10;;;;;;5037898;28;20546;-86
2022/07/23 00:44:20;;;;;;;2.65;1.50;;;15.40;79.90;;;;;;5055582;28;20192;-87
2022/07/23 00:46:52;;;;;;;3.00;1.37;;;15.40;80.30;;;;;;5037780;28;20272;-86
2022/07/23 00:49:22;;;;;;;3.50;1.60;;;15.40;80.00;;;;;;5056295;28;20155;-87
2022/07/23 00:51:49;;;;;;;5.43;1.47;;;15.40;80.40;;;;;;5055798;28;20176;-86
2022/07/23 00:54:16;;;;;;;6.45;1.73;;;15.40;80.50;;;;;;5037565;28;20188;-86
2022/07/23 00:56:43;;;;;;;9.82;1.65;;;15.50;80.20;;;;;;5036648;28;20176;-86
2022/07/23 00:59:09;;;;;;;6.00;1.33;;;15.50;80.30;;;;;;5055403;28;20176;-86
2022/07/23 01:01:34;;;;;;;2.70;1.55;;;15.50;80.50;;;;;;5037537;28;20179;-87
2022/07/23 01:04:00;;;;;;;4.93;1.35;;;15.70;80.50;;;;;;5055290;28;20195;-86
2022/07/23 01:06:26;;;;;;;3.95;1.52;;;15.70;80.20;;;;;;5037393;28;20207;-86
2022/07/23 01:08:53;;;;;;;5.68;1.70;;;15.60;79.80;;;;;;5055203;28;20536;-87
2022/07/23 01:11:19;;;;;;;8.88;1.80;;;15.70;79.90;;;;;;5037314;28;20217;-87
2022/07/23 01:13:45;;;;;;;8.93;1.63;;;15.70;79.70;;;;;;5037238;28;20231;-86
2022/07/23 01:16:11;;;;;;;3.78;1.70;;;15.70;79.40;;;;;;5055375;28;20203;-87
2022/07/23 01:18:36;;;;;;;2.72;1.38;;;15.60;79.80;;;;;;5037223;28;20240;-86
2022/07/23 01:21:02;;;;;;;3.63;1.33;;;15.50;80.00;;;;;;5037193;28;20203;-86
2022/07/23 01:23:28;;;;;;;10.48;2.08;;;15.50;80.10;;;;;;5037026;28;20203;-86
2022/07/23 01:25:54;;;;;;;4.93;1.55;;;15.50;80.60;;;;;;5054843;28;20253;-86
2022/07/23 01:28:20;;;;;;;5.05;1.70;;;15.40;80.70;;;;;;5037066;28;20199;-87
2022/07/23 01:30:46;;;;;;;5.72;1.30;;;15.40;81.20;;;;;;5036928;28;20667;-87
2022/07/23 01:33:12;;;;;;;2.97;1.92;;;15.30;81.70;;;;;;5054566;28;20207;-86
2022/07/23 01:35:37;;;;;;;3.92;1.40;;;15.30;81.80;;;;;;5055305;28;20522;-87
2022/07/23 01:38:03;;;;;;;3.92;1.35;;;15.30;81.90;;;;;;5036967;28;20183;-86
2022/07/23 01:40:28;;;;;;;2.15;1.20;;;15.40;81.70;;;;;;5036819;28;20171;-86
2022/07/23 01:42:54;;;;;;;6.05;1.60;;;15.40;81.50;;;;;;5036699;28;20172;-86
2022/07/23 01:45:20;;;;;;;6.85;1.80;;;15.50;81.50;;;;;;5036622;28;20223;-86
2022/07/23 01:47:46;;;;;;;4.55;1.70;;;15.50;81.30;;;;;;5054769;28;20169;-86
2022/07/23 01:50:12;;;;;;;7.90;2.20;;;15.30;81.80;;;;;;5036685;28;20203;-86
2022/07/23 01:52:37;;;;;;;5.20;1.88;;;15.20;82.30;;;;;;5036503;28;20552;-87
2022/07/23 01:55:03;;;;;;;7.13;1.98;;;15.30;82.10;;;;;;5036491;28;20192;-86
2022/07/23 01:57:29;;;;;;;3.55;1.80;;;15.40;81.90;;;;;;5054535;28;20245;-86
2022/07/23 01:59:54;;;;;;;7.20;2.50;;;15.40;81.80;;;;;;5054395;28;20536;-86
2022/07/23 02:02:20;;;;;;;4.55;1.80;;;15.30;82.10;;;;;;5036327;28;20680;-86
2022/07/23 02:04:45;;;;;;;7.13;2.35;;;15.20;82.60;;;;;;5036352;28;20614;-87
2022/07/23 02:07:11;;;;;;;11.93;2.47;;;15.30;82.40;;;;;;5035722;28;20575;-86
2022/07/23 02:09:36;;;;;;;6.05;2.30;;;15.30;82.50;;;;;;5053505;28;20707;-86
2022/07/23 02:12:02;;;;;;;5.03;2.08;;;15.30;82.20;;;;;;5036198;28;20182;-86
2022/07/23 02:14:28;;;;;;;7.50;2.10;;;15.30;82.20;;;;;;5053912;28;20219;-86
2022/07/23 02:16:54;;;;;;;2.73;2.00;;;15.30;82.30;;;;;;5054140;28;20222;-86
2022/07/23 02:19:19;;;;;;;5.00;2.00;;;15.30;82.60;;;;;;5054199;28;20218;-86
2022/07/23 02:21:45;;;;;;;6.20;2.30;;;15.20;82.10;;;;;;5053871;28;20579;-86
2022/07/23 02:24:11;;;;;;;2.57;1.60;;;15.20;81.70;;;;;;5035914;28;20234;-86
2022/07/23 02:26:37;;;;;;;5.63;2.07;;;15.20;81.40;;;;;;5053659;28;20196;-86
2022/07/23 02:29:03;;;;;;;4.10;1.80;;;15.20;81.40;;;;;;5035800;28;20206;-86
2022/07/23 02:31:30;;;;;;;5.00;1.83;;;15.20;81.30;;;;;;5035904;28;20650;-86
2022/07/23 02:33:56;;;;;;;5.03;1.83;;;15.20;81.10;;;;;;5077885;22;20258;-87
2022/07/23 02:36:21;;;;;;;5.03;2.00;;;15.20;81.10;;;;;;5036923;28;20176;-87
2022/07/23 02:38:47;;;;;;;5.03;2.10;;;15.20;81.10;;;;;;5036019;28;20164;-88
2022/07/23 02:41:13;;;;;;;4.97;3.27;;;15.20;81.30;;;;;;5035923;28;20650;-87
2022/07/23 02:43:38;;;;;;;8.63;2.30;;;15.20;81.70;;;;;;5053608;28;20274;-88
2022/07/23 02:46:04;;;;;;;4.87;2.47;;;15.20;82.00;;;;;;5053505;28;20614;-87
2022/07/23 02:48:30;;;;;;;6.03;2.60;;;15.20;82.10;;;;;;5035861;28;20176;-87
2022/07/23 02:50:56;;;;;;;5.63;2.33;;;15.20;82.40;;;;;;5053602;28;20199;-87
2022/07/23 02:53:22;;;;;;;5.50;2.33;;;15.20;82.70;;;;;;5053538;28;20191;-88
2022/07/23 02:55:48;;;;;;;6.90;1.90;;;15.20;82.40;;;;;;5053534;28;20184;-88
2022/07/23 02:58:13;;;;;;;7.33;2.00;;;15.20;82.10;;;;;;5035835;28;20183;-87
2022/07/23 03:00:39;;;;;;;7.07;2.30;;;15.20;82.10;;;;;;5053413;28;20211;-88
2022/07/23 03:03:05;;;;;;;5.93;2.20;;;15.10;82.50;;;;;;5035671;28;20270;-88
2022/07/23 03:05:30;;;;;;;5.30;2.50;;;15.10;82.70;;;;;;5035466;28;20204;-87
2022/07/23 03:07:56;;;;;;;5.93;2.40;;;15.10;82.80;;;;;;5035802;28;20262;-88
2022/07/23 03:10:21;;;;;;;8.53;2.47;;;15.10;82.90;;;;;;5035594;28;20545;-87
2022/07/23 03:12:47;;;;;;;6.00;2.40;;;15.20;83.10;;;;;;5035679;28;20658;-88
2022/07/23 03:15:12;;;;;;;6.47;2.43;;;15.20;83.00;;;;;;5035500;28;20548;-87
2022/07/23 03:17:38;;;;;;;3.27;2.20;;;15.30;82.90;;;;;;5035626;28;20180;-88
2022/07/23 03:20:04;;;;;;;4.03;2.30;;;15.20;83.10;;;;;;5035153;28;20705;-88
2022/07/23 03:22:29;;;;;;;4.23;2.67;;;15.20;83.30;;;;;;5035678;28;20190;-88
2022/07/23 03:24:55;;;;;;;7.30;2.90;;;15.10;83.30;;;;;;5035522;28;20199;-88
2022/07/23 03:27:26;;;;;;;5.97;3.30;;;15.10;83.50;;;;;;5035297;28;20176;-87
2022/07/23 03:29:53;;;;;;;5.03;2.43;;;15.10;83.70;;;;;;5053166;28;20171;-87
2022/07/23 03:32:19;;;;;;;7.23;2.90;;;15.10;83.50;;;;;;5035608;28;20638;-88
2022/07/23 03:34:44;;;;;;;3.97;2.93;;;15.10;83.50;;;;;;5035232;28;20258;-87
2022/07/23 03:37:11;;;;;;;6.43;2.50;;;15.20;83.90;;;;;;5035140;28;20179;-88
2022/07/23 03:39:36;;;;;;;6.30;2.63;;;15.20;83.70;;;;;;5035293;28;20271;-87
2022/07/23 03:42:02;;;;;;;4.07;2.05;;;15.20;83.80;;;;;;5035319;28;20212;-87
2022/07/23 03:44:28;;;;;;;7.32;2.28;;;15.20;83.70;;;;;;5035139;28;20211;-87
2022/07/23 03:46:53;;;;;;;5.25;2.25;;;15.20;83.40;;;;;;5035194;28;20352;-87
2022/07/23 03:49:19;;;;;;;6.30;2.50;;;15.20;83.70;;;;;;5035300;28;20179;-87
2022/07/23 03:51:44;;;;;;;4.93;2.60;;;15.10;83.30;;;;;;5035368;28;20222;-87
2022/07/23 03:54:10;;;;;;;5.50;2.60;;;15.00;83.50;;;;;;5035075;28;20196;-87
2022/07/23 03:56:36;;;;;;;8.17;2.70;;;15.00;83.40;;;;;;5035235;28;20207;-87
2022/07/23 03:59:01;;;;;;;3.77;1.90;;;14.90;83.90;;;;;;5053152;28;20176;-87
2022/07/23 04:01:27;;;;;;;4.97;2.10;;;14.80;83.90;;;;;;5035155;28;20179;-87
2022/07/23 04:03:52;;;;;;;4.07;2.07;;;14.80;84.20;;;;;;5053113;28;20195;-87
2022/07/23 04:06:18;;;;;;;4.03;1.40;;;14.70;84.50;;;;;;5035004;28;20204;-87
2022/07/23 04:08:44;;;;;;;3.43;1.50;;;14.70;84.40;;;;;;5053166;28;20164;-87
2022/07/23 04:11:09;;;;;;;8.93;1.70;;;14.60;84.30;;;;;;5035004;28;20172;-87
2022/07/23 04:13:35;;;;;;;1.30;1.20;;;14.70;84.50;;;;;;5034900;28;20200;-87
2022/07/23 04:16:00;;;;;;;5.40;1.50;;;14.80;84.20;;;;;;5052793;28;20236;-87
2022/07/23 04:18:26;;;;;;;2.73;1.17;;;14.80;83.70;;;;;;5052697;28;20716;-87
2022/07/23 04:20:52;;;;;;;3.23;1.20;;;14.80;84.10;;;;;;5034949;28;20172;-87
2022/07/23 04:23:18;;;;;;;3.23;1.13;;;14.80;83.90;;;;;;5052803;28;20262;-87
2022/07/23 04:25:43;;;;;;;2.30;1.27;;;14.90;83.60;;;;;;5052758;28;20196;-87
2022/07/23 04:28:09;;;;;;;1.90;1.07;;;14.90;83.50;;;;;;5034677;28;20172;-87
2022/07/23 04:30:34;;;;;;;1.93;1.23;;;14.90;83.70;;;;;;5034746;28;20533;-88
2022/07/23 04:33:00;;;;;;;4.20;1.40;;;14.90;83.90;;;;;;5037880;28;20302;-87
2022/07/23 04:35:26;;;;;;;5.23;1.30;;;14.80;84.20;;;;;;5056849;28;20661;-87
2022/07/23 04:37:51;;;;;;;1.13;0.97;;;14.80;84.00;;;;;;5055968;28;20180;-87
2022/07/23 04:40:17;;;;;;;4.33;1.13;;;14.90;83.70;;;;;;5056118;28;20290;-87
2022/07/23 04:42:43;;;;;;;2.50;1.13;;;14.90;83.60;;;;;;5056034;28;20175;-87
2022/07/23 04:45:09;;;;;;;4.00;1.20;;;14.90;82.80;;;;;;5037865;28;20200;-87
2022/07/23 04:47:35;;;;;;;1.67;1.00;;;14.80;82.40;;;;;;5038360;28;20602;-87
2022/07/23 04:50:00;;;;;;;3.70;1.30;;;14.90;82.50;;;;;;5038055;28;20263;-87
2022/07/23 04:52:26;;;;;;;4.53;1.43;;;14.90;82.00;;;;;;5038095;28;20176;-88
2022/07/23 04:54:51;;;;;;;3.80;1.27;;;14.90;81.60;;;;;;5038133;28;20588;-87
2022/07/23 04:57:17;;;;;;;3.33;1.27;;;14.80;81.80;;;;;;5037881;28;20204;-87
2022/07/23 04:59:42;;;;;;;1.83;1.20;;;14.90;82.20;;;;;;5037736;28;20179;-87
2022/07/23 05:02:08;;;;;;;6.80;1.27;;;14.90;82.30;;;;;;5037682;28;20211;-87
2022/07/23 05:04:34;;;;;;;7.30;1.50;;;14.90;81.80;;;;;;5037681;28;20223;-87
2022/07/23 05:06:59;;;;;;;5.07;1.37;;;14.90;81.80;;;;;;5055797;28;20204;-87
2022/07/23 05:09:25;;;;;;;4.37;1.60;;;15.00;81.70;;;;;;5055446;28;20630;-87
2022/07/23 05:11:51;;;;;;;4.97;1.40;;;15.00;81.40;;;;;;5055647;28;20199;-87
2022/07/23 05:14:16;;;;;;;4.10;1.40;;;14.90;81.40;;;;;;5037503;28;20191;-88
2022/07/23 05:16:42;;;;;;;4.30;1.70;;;14.90;81.90;;;;;;5037554;28;20195;-87
2022/07/23 05:19:08;;;;;;;3.13;1.70;;;14.90;82.40;;;;;;5037449;28;20180;-87
2022/07/23 05:21:33;;;;;;;2.03;1.60;;;15.00;82.80;;;;;;5055314;28;20180;-88
2022/07/23 05:23:59;;;;;;;4.17;1.93;;;15.00;83.00;;;;;;5037449;28;20204;-87
2022/07/23 05:26:25;;;;;;;5.40;2.40;;;14.90;83.30;;;;;;5037427;28;20203;-87
2022/07/23 05:28:51;;;;;;;4.17;2.00;;;15.00;83.60;;;;;;5037456;28;20608;-88
2022/07/23 05:31:17;;;;;;;7.03;2.37;;;14.90;84.10;;;;;;5055163;28;20247;-87
2022/07/23 05:33:42;;;;;;;4.93;2.80;;;15.00;84.50;;;;;;5037446;28;20250;-87
2022/07/23 05:36:08;;;;;;;3.23;2.50;;;14.90;84.70;;;;;;5037318;28;20182;-88
2022/07/23 05:38:34;;;;;;;4.30;2.37;;;14.80;85.10;;;;;;5055252;28;20176;-87
2022/07/23 05:40:59;;;;;;;4.93;2.70;;;14.80;85.30;;;;;;5037113;28;20180;-88
2022/07/23 05:43:25;;;;;;;3.63;2.57;;;14.80;85.20;;;;;;5054558;28;20176;-88
2022/07/23 05:45:51;;;;;;;3.83;2.63;;;14.90;85.10;;;;;;5054817;28;20196;-87
2022/07/23 05:48:16;;;;;;;4.20;2.50;;;14.90;85.10;;;;;;5037068;28;20208;-87
2022/07/23 05:50:42;;;;;;;5.03;2.47;;;15.00;84.90;;;;;;5054782;28;20670;-87
2022/07/23 05:53:08;;;;;;;5.87;3.53;;;15.00;84.90;;;;;;5037057;28;20568;-87
2022/07/23 05:55:33;;;;;;;5.43;2.70;;;15.00;84.50;;;;;;5036812;28;20200;-87
2022/07/23 05:58:00;;;;;;;5.17;2.60;;;14.90;84.90;;;;;;5054663;28;20591;-88
2022/07/23 06:00:27;;;;;;;5.57;2.43;;;15.00;85.00;;;;;;5054761;28;20707;-87
2022/07/23 06:02:52;;;;;;;3.17;2.10;;;14.90;84.90;;;;;;5036628;28;20224;-88
2022/07/23 06:05:18;;;;;;;6.10;2.53;;;15.00;85.10;;;;;;5036831;28;20662;-87
2022/07/23 06:07:44;;;;;;;3.97;2.20;;;14.90;85.50;;;;;;5054533;28;20656;-87
2022/07/23 06:10:10;;;;;;;2.90;2.33;;;15.00;85.40;;;;;;5037206;28;20182;-87
2022/07/23 06:12:35;;;;;;;3.30;2.67;;;15.00;85.40;;;;;;5054796;28;20557;-87
2022/07/23 06:15:01;;;;;;;5.13;2.60;;;14.90;85.10;;;;;;5037314;28;20206;-87
2022/07/23 06:17:27;;;;;;;5.43;2.63;;;15.10;85.30;;;;;;5036540;28;20183;-87
2022/07/23 06:19:54;;;;;;;4.30;2.10;;;15.00;85.40;;;;;;5036733;28;20583;-87
2022/07/23 06:22:19;;;;;;;4.03;1.60;;;14.80;85.60;;;;;;5054732;28;20176;-87
2022/07/23 06:24:45;;;;;;;1.97;1.33;;;14.80;86.10;;;;;;5036874;28;20199;-87
2022/07/23 06:27:11;;;;;;;8.00;1.57;;;14.70;86.30;;;;;;5054057;28;20693;-87
2022/07/23 06:29:36;;;;;;;4.00;1.50;;;14.50;87.40;;;;;;5036210;28;20176;-88
2022/07/23 06:32:02;;;;;;;5.13;1.60;;;14.70;87.70;;;;;;5036429;28;20176;-87
2022/07/23 06:34:28;;;;;;;4.13;1.30;;;14.50;87.80;;;;;;5036257;28;20226;-87
2022/07/23 06:36:53;;;;;;;3.07;1.70;;;14.40;88.80;;;;;;5036240;28;20180;-87
2022/07/23 06:39:19;;;;;;;3.73;1.47;;;14.30;89.40;;;;;;5036289;28;20642;-87
2022/07/23 06:41:44;;;;;;;1.87;1.30;;;14.40;89.60;;;;;;5036040;28;20183;-87
2022/07/23 06:44:10;;;;;;;5.53;1.87;;;14.50;89.40;;;;;;5036450;28;20241;-87
2022/07/23 06:46:36;;;;;;;2.83;1.30;;;14.60;89.10;;;;;;5035947;28;20261;-87
2022/07/23 06:49:01;;;;;;;1.97;1.27;;;14.80;89.10;;;;;;5035783;28;20230;-87
2022/07/23 06:51:27;;;;;;;4.57;1.50;;;14.80;88.40;;;;;;5035710;28;20302;-87
2022/07/23 06:53:52;;;;;;;1.80;1.20;;;14.80;88.10;;;;;;5035174;28;20200;-88
2022/07/23 06:56:18;;;;;;;5.50;1.23;;;14.90;87.60;;;;;;5036051;28;20286;-88
2022/07/23 06:58:44;;;;;;;2.40;1.00;;;15.00;87.20;;;;;;5035847;28;20183;-87
2022/07/23 07:01:09;;;;;;;2.17;0.93;;;15.00;86.90;;;;;;5035536;28;20563;-87
2022/07/23 07:03:35;;;;;;;3.67;1.10;;;15.20;86.60;;;;;;5053294;28;20243;-88
2022/07/23 07:06:02;;;;;;;2.70;1.10;;;15.20;85.70;;;;;;5035639;28;20235;-87
2022/07/23 07:08:27;;;;;;;2.40;0.93;;;15.40;85.10;;;;;;5035581;28;20180;-88
2022/07/23 07:10:53;;;;;;;2.70;1.10;;;15.50;84.50;;;;;;5035574;28;20175;-88
2022/07/23 07:13:18;;;;;;;2.40;1.00;;;15.60;84.10;;;;;;5035312;28;20253;-88
2022/07/23 07:15:44;;;;;;;1.93;1.10;;;15.60;83.90;;;;;;5035520;28;20673;-87
2022/07/23 07:18:09;;;;;;;3.47;1.50;;;15.50;83.80;;;;;;5035580;28;20559;-88
2022/07/23 07:20:35;;;;;;;3.47;1.43;;;15.40;84.00;;;;;;5035430;28;20187;-88
2022/07/23 07:23:00;;;;;;;6.97;1.73;;;15.30;85.10;;;;;;5035544;28;20183;-88
2022/07/23 07:25:26;;;;;;;3.63;1.60;;;15.30;86.30;;;;;;5053126;28;20203;-87
2022/07/23 07:27:51;;;;;;;4.50;1.67;;;15.10;87.30;;;;;;5035812;28;20211;-88
2022/07/23 07:30:17;;;;;;;2.73;1.70;;;15.10;88.10;;;;;;5035427;28;20605;-88
2022/07/23 07:32:43;;;;;;;3.40;1.57;;;15.30;87.90;;;;;;5053405;28;20176;-88
2022/07/23 07:35:09;;;;;;;1.83;1.60;;;15.20;88.20;;;;;;5035415;28;20208;-88
2022/07/23 07:37:34;;;;;;;1.70;1.27;;;15.20;88.20;;;;;;5035276;28;20262;-88
2022/07/23 07:40:00;;;;;;;4.57;1.40;;;15.20;88.20;;;;;;5035221;28;20199;-88
2022/07/23 07:42:29;;;;;;;2.17;1.40;;;15.30;88.30;;;;;;5053251;28;20176;-88
2022/07/23 07:44:54;;;;;;;1.40;1.20;;;15.50;87.50;;;;;;5035220;28;20219;-88
2022/07/23 07:47:20;;;;;;;8.23;1.70;;;15.60;86.50;;;;;;5052933;28;20239;-87
2022/07/23 07:49:45;;;;;;;3.37;1.43;;;15.60;86.00;;;;;;5035177;28;20172;-87
2022/07/23 07:52:11;;;;;;;2.53;1.20;;;15.80;85.00;;;;;;5052997;28;20226;-87
2022/07/23 07:54:37;;;;;;;2.27;1.30;;;15.70;83.40;;;;;;5035182;28;20214;-88
2022/07/23 07:57:02;;;;;;;3.03;1.40;;;15.90;83.40;;;;;;5035217;28;20187;-87
2022/07/23 07:59:28;;;;;;;3.40;1.45;;;16.20;83.50;;;;;;5035188;28;20188;-88
2022/07/23 08:01:54;;;;;;;3.28;1.30;;;16.40;83.00;;;;;;5053089;28;20230;-88
2022/07/23 08:04:20;;;;;;;2.70;1.40;;;16.70;82.60;;;;;;5035161;28;20203;-88
2022/07/23 08:06:45;;;;;;;2.47;1.23;;;16.70;81.30;;;;;;5038051;28;20210;-87
2022/07/23 08:09:11;;;;;;;4.13;1.25;;;16.40;81.00;;;;;;5056652;28;20176;-87
2022/07/23 08:11:36;;;;;;;5.28;1.30;;;16.50;80.80;;;;;;5038721;28;20179;-88
2022/07/23 08:14:02;;;;;;;1.77;1.23;;;16.50;80.40;;;;;;5038882;28;20674;-88
2022/07/23 08:16:27;;;;;;;5.90;1.42;;;16.70;81.50;;;;;;5056425;28;20176;-87
2022/07/23 08:18:53;;;;;;;2.53;1.15;;;16.70;80.00;;;;;;5039396;28;20207;-87
2022/07/23 08:21:19;;;;;;;3.33;1.17;;;17.00;79.80;;;;;;5056584;28;20207;-88
2022/07/23 08:23:45;;;;;;;3.17;1.30;;;16.80;79.50;;;;;;5038869;28;20294;-87
2022/07/23 08:26:11;;;;;;;3.13;1.30;;;16.70;79.70;;;;;;5038281;28;20601;-87
2022/07/23 08:28:37;;;;;;;6.65;1.30;;;16.70;79.80;;;;;;5038291;28;20653;-88
2022/07/23 08:31:02;;;;;;;2.33;1.08;;;16.80;79.40;;;;;;5055988;28;20199;-88
2022/07/23 08:33:28;;;;;;;2.50;1.17;;;17.00;80.20;;;;;;5037905;28;20649;-87
2022/07/23 08:35:54;;;;;;;3.00;1.20;;;17.00;79.50;;;;;;5039144;28;20638;-89
2022/07/23 08:38:21;;;;;;;3.80;1.10;;;17.20;79.30;;;;;;5038078;28;20176;-89
2022/07/23 08:40:49;;;;;;;5.35;1.55;;;17.20;79.70;;;;;;5038984;28;20234;-88
2022/07/23 08:43:26;;;;;;;4.25;1.20;;;17.30;79.00;;;;;;5038053;28;20204;-88
2022/07/23 08:45:56;;;;;;;4.10;1.10;;;17.40;78.20;;;;;;5037995;28;20191;-89
2022/07/23 08:48:23;;;;;;;4.00;1.30;;;17.60;78.30;;;;;;5056335;28;20151;-88
2022/07/23 08:50:55;;;;;;;4.35;1.83;;;17.70;78.00;;;;;;5038281;28;20172;-88
2022/07/23 08:53:21;;;;;;;4.82;1.35;;;17.70;76.80;;;;;;5055713;28;20157;-89
2022/07/23 08:55:49;;;;;;;2.15;0.77;;;17.60;77.50;;;;;;5037722;28;20641;-88
2022/07/23 08:58:15;;;;;;;2.45;0.80;;;17.50;77.60;;;;;;5055795;28;20183;-88
2022/07/23 09:00:41;;;;;;;2.97;1.00;;;17.40;77.80;;;;;;5037568;28;20283;-87
2022/07/23 09:03:07;;;;;;;1.67;0.88;;;17.20;76.70;;;;;;5037924;28;20717;-87
2022/07/23 09:05:32;;;;;;;3.30;0.93;;;17.30;76.90;;;;;;5055379;28;20203;-87
2022/07/23 09:08:09;;;;;;;3.40;0.95;;;17.20;76.50;;;;;;5055400;28;20638;-87
2022/07/23 09:10:56;;;;;;;1.70;1.00;;;17.20;77.40;;;;;;5038620;28;20172;-88
2022/07/23 09:13:34;;;;;;;1.30;0.88;;;17.30;77.80;;;;;;5037409;28;20168;-88
2022/07/23 09:16:04;;;;;;;1.80;0.80;;;17.30;76.90;;;;;;5037477;28;20176;-87
2022/07/23 09:18:30;;;;;;;1.27;0.82;;;17.10;76.10;;;;;;5036696;28;20172;-88
2022/07/23 09:21:09;;;;;;;3.58;1.10;;;17.00;76.10;;;;;;5055083;28;20176;-87
2022/07/23 09:23:53;;;;;;;2.60;1.00;;;16.80;77.40;;;;;;5037176;28;20183;-87
2022/07/23 09:26:22;;;;;;;1.70;0.88;;;16.70;77.30;;;;;;5038379;28;20203;-87
2022/07/23 09:28:54;;;;;;;2.30;1.05;;;16.50;77.10;;;;;;5054930;28;20175;-87
2022/07/23 09:31:20;;;;;;;4.57;1.02;;;16.50;78.00;;;;;;5037248;28;20198;-88
2022/07/23 09:33:46;;;;;;;2.13;1.30;;;16.70;77.90;;;;;;5036950;28;20208;-87
2022/07/23 09:36:13;;;;;;;3.05;1.20;;;16.60;78.30;;;;;;5037122;28;20221;-87
2022/07/23 09:38:49;;;;;;;1.92;1.02;;;16.70;77.90;;;;;;5037002;28;20191;-87
2022/07/23 09:41:14;;;;;;;2.15;1.30;;;17.10;77.80;;;;;;5036934;28;20174;-88
2022/07/23 09:43:40;;;;;;;3.03;1.00;;;17.40;78.00;;;;;;5054705;28;20192;-87
2022/07/23 09:46:27;;;;;;;2.15;1.23;;;17.70;76.80;;;;;;5054576;28;20621;-87
2022/07/23 09:48:56;;;;;;;1.25;0.77;;;17.60;75.20;;;;;;5036766;28;20171;-87
2022/07/23 09:53:51;;;;;;;3.53;2.25;;;17.30;74.60;;;;;;5054686;28;20253;-86
2022/07/23 09:56:18;;;;;;;1.27;0.70;;;17.00;75.20;;;;;;5054495;28;20666;-85
2022/07/23 09:59:18;;;;;;;0.90;0.77;;;17.00;73.20;;;;;;5054358;28;20204;-87
2022/07/23 10:01:36;;;;;;;1.25;0.50;;;17.10;73.20;;;;;;5052436;28;20795;-87
2022/07/23 10:04:02;;;;;;;0.70;0.70;;;17.30;73.00;;;;;;5036449;28;20241;-87
2022/07/23 10:06:29;;;;;;;1.35;0.60;;;17.70;72.50;;;;;;5037088;28;20228;-88
2022/07/23 10:08:58;;;;;;;1.23;0.57;;;18.30;72.20;;;;;;5054263;28;20650;-87
2022/07/23 10:11:25;;;;;;;1.73;0.73;;;18.40;72.10;;;;;;5036429;28;20180;-88
2022/07/23 10:13:54;;;;;;;4.13;1.17;;;18.40;72.40;;;;;;5054156;28;20192;-87
2022/07/23 10:16:21;;;;;;;2.10;1.00;;;18.40;72.60;;;;;;5054116;28;20176;-88
2022/07/23 10:18:47;;;;;;;2.60;0.80;;;18.40;72.50;;;;;;5036210;28;20266;-87
2022/07/23 10:21:21;;;;;;;2.03;0.90;;;18.20;73.30;;;;;;5054007;28;20539;-87
2022/07/23 10:24:01;;;;;;;0.60;0.60;;;18.00;72.40;;;;;;5054088;28;20557;-87
2022/07/23 10:26:51;;;;;;;2.78;0.90;;;17.90;73.70;;;;;;5037210;28;20282;-87
2022/07/23 10:29:39;;;;;;;9.07;1.23;;;18.50;73.80;;;;;;5053943;28;20263;-89
2022/07/23 10:32:30;;;;;;;3.28;0.82;;;19.00;72.90;;;;;;5054500;28;20160;-87
2022/07/23 10:35:07;;;;;;;3.08;1.10;;;19.30;72.10;;;;;;5035760;28;20211;-87
2022/07/23 10:37:38;;;;;;;2.53;1.00;;;19.50;69.00;;;;;;5053841;28;20148;-87
2022/07/23 10:40:20;;;;;;;3.58;1.00;;;19.40;69.60;;;;;;5036603;28;20164;-87
2022/07/23 10:42:47;;;;;;;1.27;0.82;;;19.20;69.70;;;;;;5036486;28;20164;-87
2022/07/23 10:45:23;;;;;;;6.97;2.67;;;19.20;70.20;;;;;;5035583;28;20192;-87
2022/07/23 10:47:50;;;;;;;4.63;1.10;;;19.10;70.70;;;;;;5036069;28;20250;-86
2022/07/23 10:50:24;;;;;;;2.95;1.15;;;19.20;69.90;;;;;;5053861;28;20160;-87
2022/07/23 10:53:15;;;;;;;3.28;1.67;;;19.00;70.70;;;;;;5035632;28;20164;-86
2022/07/23 10:55:44;;;;;;;4.20;1.35;;;18.90;70.90;;;;;;5035791;28;20630;-86
2022/07/23 10:58:10;;;;;;;3.55;0.98;;;18.80;71.70;;;;;;5053595;28;20198;-87
2022/07/23 11:00:37;;;;;;;3.17;1.10;;;19.10;71.80;;;;;;5035591;28;20250;-86
2022/07/23 11:03:08;;;;;;;3.72;0.85;;;19.30;71.70;;;;;;5035508;28;20176;-86
2022/07/23 11:05:45;;;;;;;4.05;1.20;;;19.40;69.60;;;;;;5053147;28;20291;-87
2022/07/23 11:08:17;;;;;;;1.00;0.88;;;19.20;68.50;;;;;;5053482;28;20195;-86
2022/07/23 11:10:47;;;;;;;1.30;0.82;;;18.90;70.30;;;;;;5053209;28;20511;-86
2022/07/23 11:13:21;;;;;;;2.47;1.23;;;18.70;70.70;;;;;;5036134;28;20172;-87
2022/07/23 11:16:05;;;;;;;3.88;1.02;;;18.90;70.50;;;;;;5053113;28;20176;-86
2022/07/23 11:18:40;;;;;;;4.53;1.50;;;19.10;70.70;;;;;;5035180;28;20680;-88
2022/07/23 11:21:21;;;;;;;2.78;1.33;;;19.20;70.30;;;;;;5035320;28;20179;-86
2022/07/23 11:24:08;;;;;;;3.28;1.20;;;19.30;69.30;;;;;;5035191;28;20227;-87
2022/07/23 11:26:43;;;;;;;5.68;1.10;;;19.30;70.10;;;;;;5052912;28;20191;-87
2022/07/23 11:29:27;;;;;;;4.13;1.42;;;19.40;69.40;;;;;;5035232;28;20207;-87
2022/07/23 11:31:54;;;;;;;3.38;1.17;;;18.80;70.20;;;;;;5052955;28;20172;-87
2022/07/23 11:34:43;;;;;;;2.17;1.05;;;18.90;71.00;;;;;;5034999;28;20635;-87
2022/07/23 11:37:11;;;;;;;2.03;1.25;;;18.50;69.90;;;;;;5035464;28;20717;-88
2022/07/23 11:39:38;;;;;;;3.20;1.20;;;18.70;71.50;;;;;;5035306;28;20646;-85
2022/07/23 11:42:05;;;;;;;5.85;1.20;;;19.00;71.30;;;;;;5039003;28;20175;-87
2022/07/23 11:44:36;;;;;;;2.55;1.33;;;19.20;70.90;;;;;;5056983;28;20224;-87
2022/07/23 11:47:03;;;;;;;4.68;1.50;;;19.10;67.60;;;;;;5039468;28;20226;-88
2022/07/23 11:49:29;;;;;;;1.52;0.90;;;19.40;67.40;;;;;;5056853;28;20168;-87
2022/07/23 11:52:10;;;;;;;2.63;1.13;;;19.30;67.40;;;;;;5038897;28;20171;-87
2022/07/23 11:54:49;;;;;;;3.20;0.90;;;19.20;67.30;;;;;;5057037;28;20666;-88
2022/07/23 11:57:15;;;;;;;4.00;1.00;;;19.00;67.40;;;;;;5039439;28;20538;-87
2022/07/23 11:59:43;;;;;;;3.63;1.10;;;18.60;67.00;;;;;;5056607;28;20180;-88
2022/07/23 12:02:09;;;;;;;2.47;0.80;;;18.60;68.50;;;;;;5039145;28;20283;-87
2022/07/23 12:04:41;;;;;;;1.40;0.80;;;18.70;69.40;;;;;;5038823;28;20636;-87
2022/07/23 12:07:44;;;;;;;3.08;1.13;;;19.00;68.50;;;;;;5056690;28;20232;-88
2022/07/23 12:10:21;;;;;;;3.65;1.00;;;19.70;67.80;;;;;;5038685;28;20160;-88
2022/07/23 12:12:52;;;;;;;2.03;0.90;;;19.80;65.60;;;;;;5038721;28;20164;-88
2022/07/23 12:15:32;;;;;;;2.33;0.90;;;19.60;65.20;;;;;;5056587;28;20200;-88
2022/07/23 12:18:02;;;;;;;2.90;1.13;;;19.30;64.40;;;;;;5038588;28;20184;-88
2022/07/23 12:20:31;;;;;;;2.80;0.90;;;19.50;64.10;;;;;;5038377;28;20168;-87
2022/07/23 12:23:01;;;;;;;2.33;0.80;;;19.60;64.40;;;;;;5038402;28;20168;-88
2022/07/23 12:25:29;;;;;;;1.20;0.68;;;19.40;64.60;;;;;;5038549;28;20222;-88
2022/07/23 12:28:09;;;;;;;1.17;0.70;;;19.40;64.10;;;;;;5038576;28;20230;-87
2022/07/23 12:30:44;;;;;;;2.13;0.90;;;19.20;64.30;;;;;;5038471;28;20633;-87
2022/07/23 12:33:21;;;;;;;2.67;0.90;;;19.10;64.40;;;;;;5056023;28;20178;-88
2022/07/23 12:35:47;;;;;;;1.80;0.70;;;18.80;64.60;;;;;;5056174;28;20168;-88
2022/07/23 12:38:18;;;;;;;1.95;0.98;;;19.00;66.60;;;;;;5056084;28;20214;-87
2022/07/23 12:40:50;;;;;;;2.90;0.82;;;19.20;66.00;;;;;;5038264;28;20538;-87
2022/07/23 12:43:22;;;;;;;2.15;0.90;;;19.40;65.40;;;;;;5037942;28;20653;-87
2022/07/23 12:45:53;;;;;;;1.65;0.82;;;19.40;66.50;;;;;;5037913;28;20207;-86
2022/07/23 12:48:27;;;;;;;2.92;1.00;;;19.40;65.40;;;;;;5038319;28;20283;-88
2022/07/23 12:50:56;;;;;;;2.63;1.35;;;19.50;66.20;;;;;;5037945;28;20175;-87
2022/07/23 12:53:24;;;;;;;7.03;1.20;;;19.50;66.90;;;;;;5054822;28;20183;-87